Challenger Kasser — V3UJ3 — position and weather

sailwx.info

Track history (hours):
 
Tides and Currents Weather Stations Pressure Air Temp Water Temp Dewpoint Dewpoint Depression Visibility Wind Speed Wind Dir Waves Ship Positions

Challenger Kasser

Last reported at 2018-Jun-19 05:30 UTC. Time now 2018-Jun-21 17:43 UTC.
Position N 08°19' W 014°32'.

Length 190 m; draft 6.2 m.

Type: Cargo ship. MMSI: 312099000.

Date/timePositionNaut miles runAvg speedWind from/ knotsBaromVisibWave heightAir tempDewpointWater temp
2018-Jun-19 05:30N 08°19' W 014°32'6 9.9
2018-Jun-19 04:56N 08°24' W 014°29'1710.0
2018-Jun-19 03:14N 08°37' W 014°18'310.4
2018-Jun-19 02:55N 08°40' W 014°16'2010.1
2018-Jun-19 00:56N 08°56' W 014°04'5 9.6
2018-Jun-19 00:26N 09°00' W 014°01'5 9.4
2018-Jun-18 23:54N 09°04' W 013°59'4 9.3
2018-Jun-18 23:30N 09°07' W 013°56'5 9.3
2018-Jun-18 23:00N 09°11' W 013°54'5 9.2
2018-Jun-18 22:29N 09°15' W 013°51'4 9.1
2018-Jun-18 22:00N 09°18' W 013°48'5 9.0
2018-Jun-18 21:30N 09°22' W 013°45'4 8.4
2018-Jun-18 21:00N 09°25' W 013°42'2 4.5
2018-Jun-18 20:30N 09°27' W 013°43'3 5.9
2018-Jun-18 20:00N 09°30' W 013°44'2 3.2
2018-Jun-18 19:29N 09°31' W 013°43'0 0.1
2018-Jun-18 18:59N 09°31' W 013°43'0 0.0
2018-Jun-18 18:29N 09°31' W 013°43'0 0.0
2018-Jun-18 17:59N 09°31' W 013°43'0 0.0
2018-Jun-18 17:29N 09°31' W 013°43'0 0.0
2018-Jun-18 16:59N 09°31' W 013°43'0 0.0
2018-Jun-18 16:29N 09°31' W 013°43'0 0.0
2018-Jun-18 15:59N 09°31' W 013°43'0 0.0
2018-Jun-18 15:17N 09°31' W 013°43'0 0.0
2018-Jun-18 14:59N 09°31' W 013°43'0 0.0
2018-Jun-18 14:29N 09°31' W 013°43'0 0.0
2018-Jun-18 13:59N 09°31' W 013°43'0 0.0
2018-Jun-18 13:29N 09°31' W 013°43'0 0.0
2018-Jun-18 12:59N 09°31' W 013°43'0 0.0
2018-Jun-18 12:29N 09°31' W 013°43'0 0.0
2018-Jun-18 10:47N 09°31' W 013°43'0 0.0
2018-Jun-18 10:29N 09°31' W 013°43'0 0.0
2018-Jun-18 09:59N 09°31' W 013°43'0 0.0
2018-Jun-18 09:29N 09°31' W 013°43'0 0.0
2018-Jun-18 08:59N 09°31' W 013°43'0 0.0
2018-Jun-18 08:17N 09°31' W 013°43'0 0.1
2018-Jun-18 07:59N 09°31' W 013°43'0 0.0
2018-Jun-18 07:29N 09°31' W 013°43'0 0.0
2018-Jun-18 06:59N 09°31' W 013°43'0 0.0
2018-Jun-18 06:29N 09°31' W 013°43'0 0.0
2018-Jun-18 05:59N 09°31' W 013°43'0 0.0
2018-Jun-18 05:29N 09°31' W 013°43'0 0.0
2018-Jun-18 04:59N 09°31' W 013°43'0 0.1
2018-Jun-18 04:29N 09°31' W 013°43'0 0.0
2018-Jun-18 03:59N 09°31' W 013°43'0 0.0
2018-Jun-18 03:29N 09°31' W 013°43'0 0.0
2018-Jun-18 02:59N 09°31' W 013°43'0 0.0
2018-Jun-18 02:29N 09°31' W 013°43'0 0.0
2018-Jun-18 01:59N 09°31' W 013°43'0 0.0
2018-Jun-18 01:29N 09°31' W 013°43'0 0.0
2018-Jun-18 00:59N 09°31' W 013°43'0 0.0
2018-Jun-18 00:29N 09°31' W 013°43'0 0.0
2018-Jun-17 23:59N 09°31' W 013°43'0 0.1
2018-Jun-17 23:29N 09°31' W 013°43'0 0.1
2018-Jun-17 22:56N 09°31' W 013°43'0 0.0
2018-Jun-17 22:29N 09°31' W 013°43'0 0.0
2018-Jun-17 21:59N 09°31' W 013°43'0 0.0
2018-Jun-17 21:29N 09°31' W 013°43'0 0.0
2018-Jun-17 20:59N 09°31' W 013°43'0 0.0
2018-Jun-17 20:26N 09°31' W 013°43'0 0.0
2018-Jun-17 19:59N 09°31' W 013°43'0 0.0
2018-Jun-17 19:29N 09°31' W 013°43'0 0.0
2018-Jun-17 18:59N 09°31' W 013°43'0 0.0
2018-Jun-17 18:29N 09°31' W 013°43'0 0.0
2018-Jun-17 17:59N 09°31' W 013°43'0 0.0
2018-Jun-17 17:29N 09°31' W 013°43'0 0.0
2018-Jun-17 16:59N 09°31' W 013°43'0 0.0
2018-Jun-17 16:29N 09°31' W 013°43'0 0.0
2018-Jun-17 15:59N 09°31' W 013°43'0 0.0
2018-Jun-17 15:29N 09°31' W 013°43'0 0.0
2018-Jun-17 14:59N 09°31' W 013°43'0 0.0
2018-Jun-17 14:29N 09°31' W 013°43'0 0.0
2018-Jun-17 13:59N 09°31' W 013°43'0 0.0
2018-Jun-17 13:26N 09°31' W 013°43'0 0.0
2018-Jun-17 12:38N 09°31' W 013°43'0 0.1
2018-Jun-17 12:29N 09°31' W 013°43'0 0.0
2018-Jun-17 11:59N 09°31' W 013°43'0 0.0
2018-Jun-17 11:29N 09°31' W 013°43'0 0.0
2018-Jun-17 10:56N 09°31' W 013°43'0 0.0
2018-Jun-17 10:29N 09°31' W 013°43'0 0.0
2018-Jun-17 09:50N 09°31' W 013°43'0 0.0
2018-Jun-17 09:29N 09°31' W 013°43'0 0.0
2018-Jun-17 08:59N 09°31' W 013°43'0 0.0
2018-Jun-17 08:29N 09°31' W 013°43'0 0.0
2018-Jun-17 07:59N 09°31' W 013°43'0 0.0
2018-Jun-17 07:29N 09°31' W 013°43'0 0.0
2018-Jun-17 06:59N 09°31' W 013°43'0 0.0
2018-Jun-17 06:29N 09°31' W 013°43'0 0.0
2018-Jun-17 05:59N 09°31' W 013°43'0 0.0
2018-Jun-17 05:29N 09°31' W 013°43'0 0.0
2018-Jun-17 04:59N 09°31' W 013°43'0 0.0
2018-Jun-17 04:29N 09°31' W 013°43'0 0.0
2018-Jun-17 03:59N 09°31' W 013°43'0 0.0
2018-Jun-17 03:29N 09°31' W 013°43'0 0.0
2018-Jun-17 02:59N 09°31' W 013°43'0 0.0
2018-Jun-17 02:26N 09°31' W 013°43'0 0.0
2018-Jun-17 01:59N 09°31' W 013°43'0 0.0
2018-Jun-17 01:29N 09°31' W 013°43'0 0.0
2018-Jun-17 00:59N 09°31' W 013°43'0 0.0
2018-Jun-17 00:29N 09°31' W 013°43'0 0.0
2018-Jun-16 23:59N 09°31' W 013°43'0 0.1
2018-Jun-16 23:29N 09°31' W 013°43'0 0.0
2018-Jun-16 22:59N 09°31' W 013°43'0 0.0
2018-Jun-16 22:29N 09°31' W 013°43'0 0.0
2018-Jun-16 21:59N 09°31' W 013°43'0 0.0
2018-Jun-16 21:29N 09°31' W 013°43'0 0.0
2018-Jun-16 20:59N 09°31' W 013°43'0 0.0
2018-Jun-16 20:29N 09°31' W 013°43'0 0.0
2018-Jun-16 19:59N 09°31' W 013°43'0 0.0
2018-Jun-16 19:29N 09°31' W 013°43'0 0.0
2018-Jun-16 18:59N 09°31' W 013°43'0 0.0
2018-Jun-16 18:29N 09°31' W 013°43'0 0.0
2018-Jun-16 17:59N 09°31' W 013°43'0 0.0
2018-Jun-16 17:29N 09°31' W 013°43'0 0.0
2018-Jun-16 16:59N 09°31' W 013°43'0 0.0
2018-Jun-16 16:29N 09°31' W 013°43'0 0.0
2018-Jun-16 15:59N 09°31' W 013°43'0 0.0
2018-Jun-16 15:29N 09°31' W 013°43'0 0.0
2018-Jun-16 14:59N 09°31' W 013°43'0 0.0
2018-Jun-16 14:29N 09°31' W 013°43'0 0.0
2018-Jun-16 13:59N 09°31' W 013°43'0 0.0
2018-Jun-16 13:26N 09°31' W 013°43'0 0.0
2018-Jun-16 12:59N 09°31' W 013°43'0 0.0
2018-Jun-16 12:29N 09°31' W 013°43'0 0.0
2018-Jun-16 11:59N 09°31' W 013°43'0 0.0
2018-Jun-15 15:23N 09°31' W 013°43'0 0.0
2018-Jun-15 14:59N 09°31' W 013°43'0 0.0
2018-Jun-15 14:29N 09°31' W 013°43'0 0.0
2018-Jun-15 13:59N 09°31' W 013°43'0 0.0
2018-Jun-15 13:29N 09°31' W 013°43'0 0.0
2018-Jun-15 12:59N 09°31' W 013°43'0 0.0
2018-Jun-15 12:29N 09°31' W 013°43'0 0.0
2018-Jun-15 11:59N 09°31' W 013°43'0 0.0
2018-Jun-15 11:29N 09°31' W 013°43'0 0.0
2018-Jun-15 10:59N 09°31' W 013°43'0 0.0
2018-Jun-15 10:29N 09°31' W 013°43'0 0.0
2018-Jun-15 09:59N 09°31' W 013°43'0 0.0
2018-Jun-15 09:29N 09°31' W 013°43'0 0.0
2018-Jun-15 08:59N 09°31' W 013°43'0 0.0
2018-Jun-15 08:29N 09°31' W 013°43'0 0.0
2018-Jun-15 06:14N 09°31' W 013°43'0 0.0
2018-Jun-15 05:59N 09°31' W 013°43'0 0.0
2018-Jun-15 05:29N 09°31' W 013°43'0 0.0
2018-Jun-15 04:59N 09°31' W 013°43'0 0.0
2018-Jun-15 04:29N 09°31' W 013°43'0 0.0
2018-Jun-15 03:59N 09°31' W 013°43'0 0.0
2018-Jun-15 03:29N 09°31' W 013°43'0 0.0
2018-Jun-15 02:59N 09°31' W 013°43'0 0.0
2018-Jun-15 02:29N 09°31' W 013°43'0 0.0
2018-Jun-15 01:59N 09°31' W 013°43'0 0.0
2018-Jun-15 01:29N 09°31' W 013°43'0 0.0
2018-Jun-15 00:59N 09°31' W 013°43'0 0.0
2018-Jun-15 00:29N 09°31' W 013°43'0 0.0
2018-Jun-14 23:59N 09°31' W 013°43'0 0.1
2018-Jun-14 23:29N 09°31' W 013°43'0 0.1
2018-Jun-14 22:59N 09°31' W 013°43'0 0.0
2018-Jun-14 22:29N 09°31' W 013°43'0 0.0
2018-Jun-14 21:59N 09°31' W 013°43'0 0.0
2018-Jun-14 21:26N 09°31' W 013°43'0 0.0
2018-Jun-14 20:59N 09°31' W 013°43'0 0.0
2018-Jun-14 20:29N 09°31' W 013°43'0 0.0
2018-Jun-14 19:59N 09°31' W 013°43'0 0.0
2018-Jun-14 19:29N 09°31' W 013°43'0 0.0
2018-Jun-14 18:59N 09°31' W 013°43'0 0.0
2018-Jun-14 18:29N 09°31' W 013°43'0 0.0
2018-Jun-14 17:59N 09°31' W 013°43'0 0.0
2018-Jun-14 17:29N 09°31' W 013°43'0 0.0
2018-Jun-14 16:59N 09°31' W 013°43'0 0.0
2018-Jun-14 16:29N 09°31' W 013°43'0 0.0
2018-Jun-14 15:59N 09°31' W 013°43'0 0.0
2018-Jun-14 15:29N 09°31' W 013°43'0 0.0
2018-Jun-14 14:59N 09°31' W 013°43'0 0.0
2018-Jun-14 14:29N 09°31' W 013°43'0 0.0
2018-Jun-14 13:59N 09°31' W 013°43'0 0.0
2018-Jun-14 13:29N 09°31' W 013°43'0 0.0
2018-Jun-14 12:59N 09°31' W 013°43'0 0.0
2018-Jun-14 12:29N 09°31' W 013°43'0 0.0
2018-Jun-14 11:59N 09°31' W 013°43'0 0.0
2018-Jun-14 11:29N 09°31' W 013°43'0 0.0
2018-Jun-14 10:59N 09°31' W 013°43'0 0.0
2018-Jun-14 10:29N 09°31' W 013°43'0 0.0
2018-Jun-14 09:59N 09°31' W 013°43'0 0.0
2018-Jun-14 09:29N 09°31' W 013°43'0 0.0
2018-Jun-14 08:59N 09°31' W 013°43'0 0.0
2018-Jun-14 08:29N 09°31' W 013°43'0 0.0
2018-Jun-13 23:26N 09°31' W 013°43'0 0.1
2018-Jun-13 22:59N 09°31' W 013°43'0 0.0
2018-Jun-13 22:29N 09°31' W 013°43'0 0.0
2018-Jun-13 21:59N 09°31' W 013°43'0 0.0
2018-Jun-13 21:29N 09°31' W 013°43'0 0.0
2018-Jun-13 20:59N 09°31' W 013°43'0 0.0
2018-Jun-13 20:29N 09°31' W 013°43'0 0.0
2018-Jun-13 19:59N 09°31' W 013°43'0 0.0
2018-Jun-13 19:29N 09°31' W 013°43'0 0.0
2018-Jun-13 18:59N 09°31' W 013°43'0 0.0
2018-Jun-13 18:29N 09°31' W 013°43'0 0.0
2018-Jun-13 17:59N 09°31' W 013°43'0 0.0
2018-Jun-13 17:29N 09°31' W 013°43'0 0.0
2018-Jun-13 16:59N 09°31' W 013°43'0 0.0
2018-Jun-13 16:29N 09°31' W 013°43'0 0.0
2018-Jun-13 15:59N 09°31' W 013°43'0 0.0
2018-Jun-13 15:29N 09°31' W 013°43'0 0.0
2018-Jun-13 14:59N 09°31' W 013°43'0 0.0
2018-Jun-13 14:29N 09°31' W 013°43'0 0.0
2018-Jun-13 13:59N 09°31' W 013°43'0 0.0
2018-Jun-13 13:29N 09°31' W 013°43'0 0.0
2018-Jun-13 12:59N 09°31' W 013°43'0 0.0
2018-Jun-13 12:29N 09°31' W 013°43'0 0.0
2018-Jun-13 11:59N 09°31' W 013°43'0 0.0
2018-Jun-13 11:29N 09°31' W 013°43'0 0.0
2018-Jun-13 10:59N 09°31' W 013°43'0 0.0
2018-Jun-13 10:29N 09°31' W 013°43'0 0.0
2018-Jun-13 00:02N 09°31' W 013°43'0 0.1
2018-Jun-12 23:59N 09°31' W 013°43'0 0.0
2018-Jun-12 23:29N 09°31' W 013°43'0 0.1
2018-Jun-12 22:59N 09°31' W 013°43'0 0.0
2018-Jun-12 22:29N 09°31' W 013°43'0 0.0
2018-Jun-12 21:59N 09°31' W 013°43'0 0.0
2018-Jun-12 21:29N 09°31' W 013°43'0 0.0
2018-Jun-12 20:59N 09°31' W 013°43'0 0.0
2018-Jun-12 20:29N 09°31' W 013°43'0 0.0
2018-Jun-12 19:59N 09°31' W 013°43'0 0.0
2018-Jun-12 19:29N 09°31' W 013°43'0 0.0
2018-Jun-12 18:59N 09°31' W 013°43'0 0.0
2018-Jun-12 18:29N 09°31' W 013°43'0 0.0
2018-Jun-12 17:59N 09°31' W 013°43'0 0.0
2018-Jun-12 17:29N 09°31' W 013°43'0 0.0
2018-Jun-12 16:59N 09°31' W 013°43'0 0.0
2018-Jun-12 16:29N 09°31' W 013°43'0 0.0
2018-Jun-12 15:59N 09°31' W 013°43'0 0.0
2018-Jun-12 15:29N 09°31' W 013°43'0 0.0
2018-Jun-12 14:59N 09°31' W 013°43'0 0.0
2018-Jun-12 14:29N 09°31' W 013°43'0 0.0
2018-Jun-12 13:59N 09°31' W 013°43'0 0.0
2018-Jun-12 13:29N 09°31' W 013°43'0 0.0
2018-Jun-12 12:59N 09°31' W 013°43'0 0.0
2018-Jun-12 12:29N 09°31' W 013°43'0 0.0
2018-Jun-12 11:59N 09°31' W 013°43'0 0.0
2018-Jun-12 11:29N 09°31' W 013°43'0 0.0
2018-Jun-12 10:59N 09°31' W 013°43'0 0.0
2018-Jun-12 10:29N 09°31' W 013°43'0 0.0
2018-Jun-12 09:59N 09°31' W 013°43'0 0.0
2018-Jun-12 09:02N 09°31' W 013°43'0 0.2
2018-Jun-12 08:59N 09°31' W 013°43'0 0.0
2018-Jun-12 08:29N 09°31' W 013°43'0 0.0
2018-Jun-12 07:59N 09°31' W 013°43'0 0.0
2018-Jun-12 07:29N 09°31' W 013°43'0 0.0
2018-Jun-12 06:59N 09°31' W 013°43'0 0.0
2018-Jun-12 06:29N 09°31' W 013°43'0 0.0
2018-Jun-12 05:59N 09°31' W 013°43'0 0.0
2018-Jun-12 05:29N 09°31' W 013°43'0 0.1
2018-Jun-12 04:59N 09°31' W 013°43'0 0.0
2018-Jun-12 04:29N 09°31' W 013°43'0 0.0
2018-Jun-12 03:59N 09°31' W 013°43'0 0.0
2018-Jun-12 03:29N 09°31' W 013°43'0 0.0
2018-Jun-12 02:59N 09°31' W 013°43'0 0.0
2018-Jun-12 02:29N 09°31' W 013°43'0 0.0
2018-Jun-12 01:59N 09°31' W 013°43'0 0.0
2018-Jun-12 01:29N 09°31' W 013°43'0 0.0
2018-Jun-12 00:29N 09°31' W 013°43'0 0.0
2018-Jun-12 00:00N 09°31' W 013°43'0 0.3
2018-Jun-11 23:30N 09°31' W 013°43'2 4.0
2018-Jun-11 23:00N 09°29' W 013°44'3 5.1
2018-Jun-11 22:30N 09°27' W 013°43'1 1.5
2018-Jun-11 22:00N 09°26' W 013°43'0 0.1
2018-Jun-11 21:30N 09°26' W 013°43'0 0.2
2018-Jun-11 21:00N 09°26' W 013°43'1 2.6
2018-Jun-11 20:30N 09°25' W 013°43'0 0.1
2018-Jun-11 20:00N 09°25' W 013°43'0 0.1
2018-Jun-11 19:30N 09°25' W 013°43'0 0.1
2018-Jun-11 19:00N 09°25' W 013°43'0 1.0
2018-Jun-11 18:29N 09°25' W 013°43'0 0.9
2018-Jun-11 18:00N 09°25' W 013°42'1 2.5
2018-Jun-11 17:30N 09°24' W 013°42'2 5.0
2018-Jun-11 17:00N 09°21' W 013°43'3 6.2
2018-Jun-11 16:30N 09°18' W 013°42'0 0.1
2018-Jun-11 16:00N 09°18' W 013°42'0 0.0
2018-Jun-11 15:30N 09°18' W 013°42'0 0.0
2018-Jun-11 15:00N 09°18' W 013°42'0 0.0
2018-Jun-11 14:30N 09°18' W 013°42'0 0.0
2018-Jun-11 14:00N 09°18' W 013°42'0 0.1
2018-Jun-11 13:30N 09°18' W 013°42'0 0.2
2018-Jun-11 13:00N 09°18' W 013°42'0 0.1
2018-Jun-11 12:30N 09°18' W 013°42'0 0.0
2018-Jun-11 11:54N 09°18' W 013°42'0 0.2
2018-Jun-11 11:30N 09°18' W 013°42'0 0.0
2018-Jun-11 11:00N 09°18' W 013°42'0 0.0
2018-Jun-11 10:30N 09°18' W 013°42'0 0.0
2018-Jun-11 09:57N 09°18' W 013°42'0 0.0
2018-Jun-11 09:06N 09°18' W 013°42'0 0.1
2018-Jun-11 09:00N 09°18' W 013°42'0 0.0
2018-Jun-11 08:30N 09°18' W 013°42'0 0.1
2018-Jun-11 08:00N 09°18' W 013°42'0 0.0
2018-Jun-11 06:48N 09°18' W 013°42'0 0.1
2018-Jun-11 06:24N 09°18' W 013°42'0 0.1
2018-Jun-11 06:00N 09°18' W 013°42'0 0.2
2018-Jun-11 05:30N 09°18' W 013°42'0 0.0
2018-Jun-11 05:00N 09°18' W 013°42'0 0.1
2018-Jun-11 04:30N 09°18' W 013°42'0 0.0
2018-Jun-11 03:27N 09°18' W 013°42'0 0.2
2018-Jun-11 02:24N 09°18' W 013°42'0 0.1
2018-Jun-11 01:51N 09°18' W 013°42'0 0.0
2018-Jun-11 00:51N 09°18' W 013°42'0 0.0
2018-Jun-11 00:30N 09°18' W 013°42'0 0.0
2018-Jun-11 00:00N 09°18' W 013°42'0 0.0
2018-Jun-10 23:30N 09°18' W 013°42'0 0.1
2018-Jun-10 22:57N 09°18' W 013°42'0 0.0
2018-Jun-10 22:30N 09°18' W 013°42'0 0.0
2018-Jun-10 22:00N 09°18' W 013°42'0 0.0
2018-Jun-10 21:30N 09°18' W 013°42'0 0.0
2018-Jun-10 21:00N 09°18' W 013°42'0 0.0
2018-Jun-10 20:30N 09°18' W 013°42'0 0.0
2018-Jun-10 19:48N 09°18' W 013°42'0 0.0
2018-Jun-10 19:06N 09°18' W 013°42'0 0.1
2018-Jun-10 18:57N 09°18' W 013°42'0 0.0
2018-Jun-10 18:30N 09°18' W 013°42'0 0.0
2018-Jun-10 18:00N 09°18' W 013°42'0 0.0
2018-Jun-10 17:27N 09°18' W 013°42'0 0.0
2018-Jun-10 17:00N 09°18' W 013°42'0 0.0
2018-Jun-10 16:30N 09°18' W 013°42'0 0.0
2018-Jun-10 16:00N 09°18' W 013°42'0 0.0
2018-Jun-10 15:30N 09°18' W 013°42'0 0.0
2018-Jun-10 14:33N 09°18' W 013°42'0 0.0
2018-Jun-10 14:30N 09°18' W 013°42'0 0.1
2018-Jun-10 13:24N 09°18' W 013°42'0 0.1
2018-Jun-10 13:00N 09°18' W 013°42'0 0.1
2018-Jun-10 12:30N 09°18' W 013°42'0 0.0
2018-Jun-10 11:54N 09°18' W 013°42'2 1.0
2018-Jun-10 09:27N 09°17' W 013°44'4 8.3
2018-Jun-10 09:00N 09°16' W 013°48'1 1.6
2018-Jun-10 08:30N 09°17' W 013°47'1 2.2
2018-Jun-10 08:00N 09°17' W 013°46'1 2.6
2018-Jun-10 07:30N 09°17' W 013°45'1 3.0
2018-Jun-10 07:00N 09°18' W 013°44'3 6.8
2018-Jun-10 06:29N 09°21' W 013°42'1 2.8
2018-Jun-10 06:00N 09°22' W 013°42'1 0.7
2018-Jun-10 04:25N 09°23' W 013°41'0 0.1
2018-Jun-10 04:01N 09°23' W 013°41'0 0.1
2018-Jun-10 03:28N 09°23' W 013°41'0 0.0
2018-Jun-10 00:36N 09°23' W 013°41'0 0.1
2018-Jun-10 00:30N 09°23' W 013°41'0 0.0
2018-Jun-09 22:10N 09°23' W 013°41'0 0.0
2018-Jun-09 22:00N 09°23' W 013°41'0 0.0
2018-Jun-09 21:30N 09°23' W 013°41'0 0.0
2018-Jun-09 21:01N 09°23' W 013°41'0 0.1
2018-Jun-09 20:31N 09°23' W 013°41'0 0.1
2018-Jun-09 19:57N 09°23' W 013°41'0 0.0
2018-Jun-09 19:31N 09°23' W 013°41'0 0.0
2018-Jun-09 18:58N 09°23' W 013°41'0 0.0
2018-Jun-09 18:28N 09°23' W 013°41'0 0.0
2018-Jun-09 18:01N 09°23' W 013°41'0 0.0
2018-Jun-09 14:00N 09°23' W 013°41'0 0.0
2018-Jun-09 13:31N 09°23' W 013°41'0 0.0
2018-Jun-09 13:01N 09°23' W 013°41'0 0.0
2018-Jun-09 12:31N 09°23' W 013°41'0 0.0
2018-Jun-09 11:58N 09°23' W 013°41'0 0.0
2018-Jun-09 11:31N 09°23' W 013°41'  
Track history (hours):
 
Tides and Currents Weather Stations Pressure Air Temp Water Temp Dewpoint Dewpoint Depression Visibility Wind Speed Wind Dir Waves Ship Positions

Challenger Kasser

Last reported at 2018-Jun-19 05:30 UTC. Time now 2018-Jun-21 17:43 UTC.
Position N 08°19' W 014°32'.

Length 190 m; draft 6.2 m.

Type: Cargo ship. MMSI: 312099000.

Date/timePositionNaut miles runAvg speedWind from/ knotsBaromVisibWave heightAir tempDewpointWater temp
2018-Jun-19 05:30N 08°19' W 014°32'6 9.9
2018-Jun-19 04:56N 08°24' W 014°29'1710.0
2018-Jun-19 03:14N 08°37' W 014°18'310.4
2018-Jun-19 02:55N 08°40' W 014°16'2010.1
2018-Jun-19 00:56N 08°56' W 014°04'5 9.6
2018-Jun-19 00:26N 09°00' W 014°01'5 9.4
2018-Jun-18 23:54N 09°04' W 013°59'4 9.3
2018-Jun-18 23:30N 09°07' W 013°56'5 9.3
2018-Jun-18 23:00N 09°11' W 013°54'5 9.2
2018-Jun-18 22:29N 09°15' W 013°51'4 9.1
2018-Jun-18 22:00N 09°18' W 013°48'5 9.0
2018-Jun-18 21:30N 09°22' W 013°45'4 8.4
2018-Jun-18 21:00N 09°25' W 013°42'2 4.5
2018-Jun-18 20:30N 09°27' W 013°43'3 5.9
2018-Jun-18 20:00N 09°30' W 013°44'2 3.2
2018-Jun-18 19:29N 09°31' W 013°43'0 0.1
2018-Jun-18 18:59N 09°31' W 013°43'0 0.0
2018-Jun-18 18:29N 09°31' W 013°43'0 0.0
2018-Jun-18 17:59N 09°31' W 013°43'0 0.0
2018-Jun-18 17:29N 09°31' W 013°43'0 0.0
2018-Jun-18 16:59N 09°31' W 013°43'0 0.0
2018-Jun-18 16:29N 09°31' W 013°43'0 0.0
2018-Jun-18 15:59N 09°31' W 013°43'0 0.0
2018-Jun-18 15:17N 09°31' W 013°43'0 0.0
2018-Jun-18 14:59N 09°31' W 013°43'0 0.0
2018-Jun-18 14:29N 09°31' W 013°43'0 0.0
2018-Jun-18 13:59N 09°31' W 013°43'0 0.0
2018-Jun-18 13:29N 09°31' W 013°43'0 0.0
2018-Jun-18 12:59N 09°31' W 013°43'0 0.0
2018-Jun-18 12:29N 09°31' W 013°43'0 0.0
2018-Jun-18 10:47N 09°31' W 013°43'0 0.0
2018-Jun-18 10:29N 09°31' W 013°43'0 0.0
2018-Jun-18 09:59N 09°31' W 013°43'0 0.0
2018-Jun-18 09:29N 09°31' W 013°43'0 0.0
2018-Jun-18 08:59N 09°31' W 013°43'0 0.0
2018-Jun-18 08:17N 09°31' W 013°43'0 0.1
2018-Jun-18 07:59N 09°31' W 013°43'0 0.0
2018-Jun-18 07:29N 09°31' W 013°43'0 0.0
2018-Jun-18 06:59N 09°31' W 013°43'0 0.0
2018-Jun-18 06:29N 09°31' W 013°43'0 0.0
2018-Jun-18 05:59N 09°31' W 013°43'0 0.0
2018-Jun-18 05:29N 09°31' W 013°43'0 0.0
2018-Jun-18 04:59N 09°31' W 013°43'0 0.1
2018-Jun-18 04:29N 09°31' W 013°43'0 0.0
2018-Jun-18 03:59N 09°31' W 013°43'0 0.0
2018-Jun-18 03:29N 09°31' W 013°43'0 0.0
2018-Jun-18 02:59N 09°31' W 013°43'0 0.0
2018-Jun-18 02:29N 09°31' W 013°43'0 0.0
2018-Jun-18 01:59N 09°31' W 013°43'0 0.0
2018-Jun-18 01:29N 09°31' W 013°43'0 0.0
2018-Jun-18 00:59N 09°31' W 013°43'0 0.0
2018-Jun-18 00:29N 09°31' W 013°43'0 0.0
2018-Jun-17 23:59N 09°31' W 013°43'0 0.1
2018-Jun-17 23:29N 09°31' W 013°43'0 0.1
2018-Jun-17 22:56N 09°31' W 013°43'0 0.0
2018-Jun-17 22:29N 09°31' W 013°43'0 0.0
2018-Jun-17 21:59N 09°31' W 013°43'0 0.0
2018-Jun-17 21:29N 09°31' W 013°43'0 0.0
2018-Jun-17 20:59N 09°31' W 013°43'0 0.0
2018-Jun-17 20:26N 09°31' W 013°43'0 0.0
2018-Jun-17 19:59N 09°31' W 013°43'0 0.0
2018-Jun-17 19:29N 09°31' W 013°43'0 0.0
2018-Jun-17 18:59N 09°31' W 013°43'0 0.0
2018-Jun-17 18:29N 09°31' W 013°43'0 0.0
2018-Jun-17 17:59N 09°31' W 013°43'0 0.0
2018-Jun-17 17:29N 09°31' W 013°43'0 0.0
2018-Jun-17 16:59N 09°31' W 013°43'0 0.0
2018-Jun-17 16:29N 09°31' W 013°43'0 0.0
2018-Jun-17 15:59N 09°31' W 013°43'0 0.0
2018-Jun-17 15:29N 09°31' W 013°43'0 0.0
2018-Jun-17 14:59N 09°31' W 013°43'0 0.0
2018-Jun-17 14:29N 09°31' W 013°43'0 0.0
2018-Jun-17 13:59N 09°31' W 013°43'0 0.0
2018-Jun-17 13:26N 09°31' W 013°43'0 0.0
2018-Jun-17 12:38N 09°31' W 013°43'0 0.1
2018-Jun-17 12:29N 09°31' W 013°43'0 0.0
2018-Jun-17 11:59N 09°31' W 013°43'0 0.0
2018-Jun-17 11:29N 09°31' W 013°43'0 0.0
2018-Jun-17 10:56N 09°31' W 013°43'0 0.0
2018-Jun-17 10:29N 09°31' W 013°43'0 0.0
2018-Jun-17 09:50N 09°31' W 013°43'0 0.0
2018-Jun-17 09:29N 09°31' W 013°43'0 0.0
2018-Jun-17 08:59N 09°31' W 013°43'0 0.0
2018-Jun-17 08:29N 09°31' W 013°43'0 0.0
2018-Jun-17 07:59N 09°31' W 013°43'0 0.0
2018-Jun-17 07:29N 09°31' W 013°43'0 0.0
2018-Jun-17 06:59N 09°31' W 013°43'0 0.0
2018-Jun-17 06:29N 09°31' W 013°43'0 0.0
2018-Jun-17 05:59N 09°31' W 013°43'0 0.0
2018-Jun-17 05:29N 09°31' W 013°43'0 0.0
2018-Jun-17 04:59N 09°31' W 013°43'0 0.0
2018-Jun-17 04:29N 09°31' W 013°43'0 0.0
2018-Jun-17 03:59N 09°31' W 013°43'0 0.0
2018-Jun-17 03:29N 09°31' W 013°43'0 0.0
2018-Jun-17 02:59N 09°31' W 013°43'0 0.0
2018-Jun-17 02:26N 09°31' W 013°43'0 0.0
2018-Jun-17 01:59N 09°31' W 013°43'0 0.0
2018-Jun-17 01:29N 09°31' W 013°43'0 0.0
2018-Jun-17 00:59N 09°31' W 013°43'0 0.0
2018-Jun-17 00:29N 09°31' W 013°43'0 0.0
2018-Jun-16 23:59N 09°31' W 013°43'0 0.1
2018-Jun-16 23:29N 09°31' W 013°43'0 0.0
2018-Jun-16 22:59N 09°31' W 013°43'0 0.0
2018-Jun-16 22:29N 09°31' W 013°43'0 0.0
2018-Jun-16 21:59N 09°31' W 013°43'0 0.0
2018-Jun-16 21:29N 09°31' W 013°43'0 0.0
2018-Jun-16 20:59N 09°31' W 013°43'0 0.0
2018-Jun-16 20:29N 09°31' W 013°43'0 0.0
2018-Jun-16 19:59N 09°31' W 013°43'0 0.0
2018-Jun-16 19:29N 09°31' W 013°43'0 0.0
2018-Jun-16 18:59N 09°31' W 013°43'0 0.0
2018-Jun-16 18:29N 09°31' W 013°43'0 0.0
2018-Jun-16 17:59N 09°31' W 013°43'0 0.0
2018-Jun-16 17:29N 09°31' W 013°43'0 0.0
2018-Jun-16 16:59N 09°31' W 013°43'0 0.0
2018-Jun-16 16:29N 09°31' W 013°43'0 0.0
2018-Jun-16 15:59N 09°31' W 013°43'0 0.0
2018-Jun-16 15:29N 09°31' W 013°43'0 0.0
2018-Jun-16 14:59N 09°31' W 013°43'0 0.0
2018-Jun-16 14:29N 09°31' W 013°43'0 0.0
2018-Jun-16 13:59N 09°31' W 013°43'0 0.0
2018-Jun-16 13:26N 09°31' W 013°43'0 0.0
2018-Jun-16 12:59N 09°31' W 013°43'0 0.0
2018-Jun-16 12:29N 09°31' W 013°43'0 0.0
2018-Jun-16 11:59N 09°31' W 013°43'0 0.0
2018-Jun-15 15:23N 09°31' W 013°43'0 0.0
2018-Jun-15 14:59N 09°31' W 013°43'0 0.0
2018-Jun-15 14:29N 09°31' W 013°43'0 0.0
2018-Jun-15 13:59N 09°31' W 013°43'0 0.0
2018-Jun-15 13:29N 09°31' W 013°43'0 0.0
2018-Jun-15 12:59N 09°31' W 013°43'0 0.0
2018-Jun-15 12:29N 09°31' W 013°43'0 0.0
2018-Jun-15 11:59N 09°31' W 013°43'0 0.0
2018-Jun-15 11:29N 09°31' W 013°43'0 0.0
2018-Jun-15 10:59N 09°31' W 013°43'0 0.0
2018-Jun-15 10:29N 09°31' W 013°43'0 0.0
2018-Jun-15 09:59N 09°31' W 013°43'0 0.0
2018-Jun-15 09:29N 09°31' W 013°43'0 0.0
2018-Jun-15 08:59N 09°31' W 013°43'0 0.0
2018-Jun-15 08:29N 09°31' W 013°43'0 0.0
2018-Jun-15 06:14N 09°31' W 013°43'0 0.0
2018-Jun-15 05:59N 09°31' W 013°43'0 0.0
2018-Jun-15 05:29N 09°31' W 013°43'0 0.0
2018-Jun-15 04:59N 09°31' W 013°43'0 0.0
2018-Jun-15 04:29N 09°31' W 013°43'0 0.0
2018-Jun-15 03:59N 09°31' W 013°43'0 0.0
2018-Jun-15 03:29N 09°31' W 013°43'0 0.0
2018-Jun-15 02:59N 09°31' W 013°43'0 0.0
2018-Jun-15 02:29N 09°31' W 013°43'0 0.0
2018-Jun-15 01:59N 09°31' W 013°43'0 0.0
2018-Jun-15 01:29N 09°31' W 013°43'0 0.0
2018-Jun-15 00:59N 09°31' W 013°43'0 0.0
2018-Jun-15 00:29N 09°31' W 013°43'0 0.0
2018-Jun-14 23:59N 09°31' W 013°43'0 0.1
2018-Jun-14 23:29N 09°31' W 013°43'0 0.1
2018-Jun-14 22:59N 09°31' W 013°43'0 0.0
2018-Jun-14 22:29N 09°31' W 013°43'0 0.0
2018-Jun-14 21:59N 09°31' W 013°43'0 0.0
2018-Jun-14 21:26N 09°31' W 013°43'0 0.0
2018-Jun-14 20:59N 09°31' W 013°43'0 0.0
2018-Jun-14 20:29N 09°31' W 013°43'0 0.0
2018-Jun-14 19:59N 09°31' W 013°43'0 0.0
2018-Jun-14 19:29N 09°31' W 013°43'0 0.0
2018-Jun-14 18:59N 09°31' W 013°43'0 0.0
2018-Jun-14 18:29N 09°31' W 013°43'0 0.0
2018-Jun-14 17:59N 09°31' W 013°43'0 0.0
2018-Jun-14 17:29N 09°31' W 013°43'0 0.0
2018-Jun-14 16:59N 09°31' W 013°43'0 0.0
2018-Jun-14 16:29N 09°31' W 013°43'0 0.0
2018-Jun-14 15:59N 09°31' W 013°43'0 0.0
2018-Jun-14 15:29N 09°31' W 013°43'0 0.0
2018-Jun-14 14:59N 09°31' W 013°43'0 0.0
2018-Jun-14 14:29N 09°31' W 013°43'0 0.0
2018-Jun-14 13:59N 09°31' W 013°43'0 0.0
2018-Jun-14 13:29N 09°31' W 013°43'0 0.0
2018-Jun-14 12:59N 09°31' W 013°43'0 0.0
2018-Jun-14 12:29N 09°31' W 013°43'0 0.0
2018-Jun-14 11:59N 09°31' W 013°43'0 0.0
2018-Jun-14 11:29N 09°31' W 013°43'0 0.0
2018-Jun-14 10:59N 09°31' W 013°43'0 0.0
2018-Jun-14 10:29N 09°31' W 013°43'0 0.0
2018-Jun-14 09:59N 09°31' W 013°43'0 0.0
2018-Jun-14 09:29N 09°31' W 013°43'0 0.0
2018-Jun-14 08:59N 09°31' W 013°43'0 0.0
2018-Jun-14 08:29N 09°31' W 013°43'0 0.0
2018-Jun-13 23:26N 09°31' W 013°43'0 0.1
2018-Jun-13 22:59N 09°31' W 013°43'0 0.0
2018-Jun-13 22:29N 09°31' W 013°43'0 0.0
2018-Jun-13 21:59N 09°31' W 013°43'0 0.0
2018-Jun-13 21:29N 09°31' W 013°43'0 0.0
2018-Jun-13 20:59N 09°31' W 013°43'0 0.0
2018-Jun-13 20:29N 09°31' W 013°43'0 0.0
2018-Jun-13 19:59N 09°31' W 013°43'0 0.0
2018-Jun-13 19:29N 09°31' W 013°43'0 0.0
2018-Jun-13 18:59N 09°31' W 013°43'0 0.0
2018-Jun-13 18:29N 09°31' W 013°43'0 0.0
2018-Jun-13 17:59N 09°31' W 013°43'0 0.0
2018-Jun-13 17:29N 09°31' W 013°43'0 0.0
2018-Jun-13 16:59N 09°31' W 013°43'0 0.0
2018-Jun-13 16:29N 09°31' W 013°43'0 0.0
2018-Jun-13 15:59N 09°31' W 013°43'0 0.0
2018-Jun-13 15:29N 09°31' W 013°43'0 0.0
2018-Jun-13 14:59N 09°31' W 013°43'0 0.0
2018-Jun-13 14:29N 09°31' W 013°43'0 0.0
2018-Jun-13 13:59N 09°31' W 013°43'0 0.0
2018-Jun-13 13:29N 09°31' W 013°43'0 0.0
2018-Jun-13 12:59N 09°31' W 013°43'0 0.0
2018-Jun-13 12:29N 09°31' W 013°43'0 0.0
2018-Jun-13 11:59N 09°31' W 013°43'0 0.0
2018-Jun-13 11:29N 09°31' W 013°43'0 0.0
2018-Jun-13 10:59N 09°31' W 013°43'0 0.0
2018-Jun-13 10:29N 09°31' W 013°43'0 0.0
2018-Jun-13 00:02N 09°31' W 013°43'0 0.1
2018-Jun-12 23:59N 09°31' W 013°43'0 0.0
2018-Jun-12 23:29N 09°31' W 013°43'0 0.1
2018-Jun-12 22:59N 09°31' W 013°43'0 0.0
2018-Jun-12 22:29N 09°31' W 013°43'0 0.0
2018-Jun-12 21:59N 09°31' W 013°43'0 0.0
2018-Jun-12 21:29N 09°31' W 013°43'0 0.0
2018-Jun-12 20:59N 09°31' W 013°43'0 0.0
2018-Jun-12 20:29N 09°31' W 013°43'0 0.0
2018-Jun-12 19:59N 09°31' W 013°43'0 0.0
2018-Jun-12 19:29N 09°31' W 013°43'0 0.0
2018-Jun-12 18:59N 09°31' W 013°43'0 0.0
2018-Jun-12 18:29N 09°31' W 013°43'0 0.0
2018-Jun-12 17:59N 09°31' W 013°43'0 0.0
2018-Jun-12 17:29N 09°31' W 013°43'0 0.0
2018-Jun-12 16:59N 09°31' W 013°43'0 0.0
2018-Jun-12 16:29N 09°31' W 013°43'0 0.0
2018-Jun-12 15:59N 09°31' W 013°43'0 0.0
2018-Jun-12 15:29N 09°31' W 013°43'0 0.0
2018-Jun-12 14:59N 09°31' W 013°43'0 0.0
2018-Jun-12 14:29N 09°31' W 013°43'0 0.0
2018-Jun-12 13:59N 09°31' W 013°43'0 0.0
2018-Jun-12 13:29N 09°31' W 013°43'0 0.0
2018-Jun-12 12:59N 09°31' W 013°43'0 0.0
2018-Jun-12 12:29N 09°31' W 013°43'0 0.0
2018-Jun-12 11:59N 09°31' W 013°43'0 0.0
2018-Jun-12 11:29N 09°31' W 013°43'0 0.0
2018-Jun-12 10:59N 09°31' W 013°43'0 0.0
2018-Jun-12 10:29N 09°31' W 013°43'0 0.0
2018-Jun-12 09:59N 09°31' W 013°43'0 0.0
2018-Jun-12 09:02N 09°31' W 013°43'0 0.2
2018-Jun-12 08:59N 09°31' W 013°43'0 0.0
2018-Jun-12 08:29N 09°31' W 013°43'0 0.0
2018-Jun-12 07:59N 09°31' W 013°43'0 0.0
2018-Jun-12 07:29N 09°31' W 013°43'0 0.0
2018-Jun-12 06:59N 09°31' W 013°43'0 0.0
2018-Jun-12 06:29N 09°31' W 013°43'0 0.0
2018-Jun-12 05:59N 09°31' W 013°43'0 0.0
2018-Jun-12 05:29N 09°31' W 013°43'0 0.1
2018-Jun-12 04:59N 09°31' W 013°43'0 0.0
2018-Jun-12 04:29N 09°31' W 013°43'0 0.0
2018-Jun-12 03:59N 09°31' W 013°43'0 0.0
2018-Jun-12 03:29N 09°31' W 013°43'0 0.0
2018-Jun-12 02:59N 09°31' W 013°43'0 0.0
2018-Jun-12 02:29N 09°31' W 013°43'0 0.0
2018-Jun-12 01:59N 09°31' W 013°43'0 0.0
2018-Jun-12 01:29N 09°31' W 013°43'0 0.0
2018-Jun-12 00:29N 09°31' W 013°43'0 0.0
2018-Jun-12 00:00N 09°31' W 013°43'0 0.3
2018-Jun-11 23:30N 09°31' W 013°43'2 4.0
2018-Jun-11 23:00N 09°29' W 013°44'3 5.1
2018-Jun-11 22:30N 09°27' W 013°43'1 1.5
2018-Jun-11 22:00N 09°26' W 013°43'0 0.1
2018-Jun-11 21:30N 09°26' W 013°43'0 0.2
2018-Jun-11 21:00N 09°26' W 013°43'1 2.6
2018-Jun-11 20:30N 09°25' W 013°43'0 0.1
2018-Jun-11 20:00N 09°25' W 013°43'0 0.1
2018-Jun-11 19:30N 09°25' W 013°43'0 0.1
2018-Jun-11 19:00N 09°25' W 013°43'0 1.0
2018-Jun-11 18:29N 09°25' W 013°43'0 0.9
2018-Jun-11 18:00N 09°25' W 013°42'1 2.5
2018-Jun-11 17:30N 09°24' W 013°42'2 5.0
2018-Jun-11 17:00N 09°21' W 013°43'3 6.2
2018-Jun-11 16:30N 09°18' W 013°42'0 0.1
2018-Jun-11 16:00N 09°18' W 013°42'0 0.0
2018-Jun-11 15:30N 09°18' W 013°42'0 0.0
2018-Jun-11 15:00N 09°18' W 013°42'0 0.0
2018-Jun-11 14:30N 09°18' W 013°42'0 0.0
2018-Jun-11 14:00N 09°18' W 013°42'0 0.1
2018-Jun-11 13:30N 09°18' W 013°42'0 0.2
2018-Jun-11 13:00N 09°18' W 013°42'0 0.1
2018-Jun-11 12:30N 09°18' W 013°42'0 0.0
2018-Jun-11 11:54N 09°18' W 013°42'0 0.2
2018-Jun-11 11:30N 09°18' W 013°42'0 0.0
2018-Jun-11 11:00N 09°18' W 013°42'0 0.0
2018-Jun-11 10:30N 09°18' W 013°42'0 0.0
2018-Jun-11 09:57N 09°18' W 013°42'0 0.0
2018-Jun-11 09:06N 09°18' W 013°42'0 0.1
2018-Jun-11 09:00N 09°18' W 013°42'0 0.0
2018-Jun-11 08:30N 09°18' W 013°42'0 0.1
2018-Jun-11 08:00N 09°18' W 013°42'0 0.0
2018-Jun-11 06:48N 09°18' W 013°42'0 0.1
2018-Jun-11 06:24N 09°18' W 013°42'0 0.1
2018-Jun-11 06:00N 09°18' W 013°42'0 0.2
2018-Jun-11 05:30N 09°18' W 013°42'0 0.0
2018-Jun-11 05:00N 09°18' W 013°42'0 0.1
2018-Jun-11 04:30N 09°18' W 013°42'0 0.0
2018-Jun-11 03:27N 09°18' W 013°42'0 0.2
2018-Jun-11 02:24N 09°18' W 013°42'0 0.1
2018-Jun-11 01:51N 09°18' W 013°42'0 0.0
2018-Jun-11 00:51N 09°18' W 013°42'0 0.0
2018-Jun-11 00:30N 09°18' W 013°42'0 0.0
2018-Jun-11 00:00N 09°18' W 013°42'0 0.0
2018-Jun-10 23:30N 09°18' W 013°42'0 0.1
2018-Jun-10 22:57N 09°18' W 013°42'0 0.0
2018-Jun-10 22:30N 09°18' W 013°42'0 0.0
2018-Jun-10 22:00N 09°18' W 013°42'0 0.0
2018-Jun-10 21:30N 09°18' W 013°42'0 0.0
2018-Jun-10 21:00N 09°18' W 013°42'0 0.0
2018-Jun-10 20:30N 09°18' W 013°42'0 0.0
2018-Jun-10 19:48N 09°18' W 013°42'0 0.0
2018-Jun-10 19:06N 09°18' W 013°42'0 0.1
2018-Jun-10 18:57N 09°18' W 013°42'0 0.0
2018-Jun-10 18:30N 09°18' W 013°42'0 0.0
2018-Jun-10 18:00N 09°18' W 013°42'0 0.0
2018-Jun-10 17:27N 09°18' W 013°42'0 0.0
2018-Jun-10 17:00N 09°18' W 013°42'0 0.0
2018-Jun-10 16:30N 09°18' W 013°42'0 0.0
2018-Jun-10 16:00N 09°18' W 013°42'0 0.0
2018-Jun-10 15:30N 09°18' W 013°42'0 0.0
2018-Jun-10 14:33N 09°18' W 013°42'0 0.0
2018-Jun-10 14:30N 09°18' W 013°42'0 0.1
2018-Jun-10 13:24N 09°18' W 013°42'0 0.1
2018-Jun-10 13:00N 09°18' W 013°42'0 0.1
2018-Jun-10 12:30N 09°18' W 013°42'0 0.0
2018-Jun-10 11:54N 09°18' W 013°42'2 1.0
2018-Jun-10 09:27N 09°17' W 013°44'4 8.3
2018-Jun-10 09:00N 09°16' W 013°48'1 1.6
2018-Jun-10 08:30N 09°17' W 013°47'1 2.2
2018-Jun-10 08:00N 09°17' W 013°46'1 2.6
2018-Jun-10 07:30N 09°17' W 013°45'1 3.0
2018-Jun-10 07:00N 09°18' W 013°44'3 6.8
2018-Jun-10 06:29N 09°21' W 013°42'1 2.8
2018-Jun-10 06:00N 09°22' W 013°42'1 0.7
2018-Jun-10 04:25N 09°23' W 013°41'0 0.1
2018-Jun-10 04:01N 09°23' W 013°41'0 0.1
2018-Jun-10 03:28N 09°23' W 013°41'0 0.0
2018-Jun-10 00:36N 09°23' W 013°41'0 0.1
2018-Jun-10 00:30N 09°23' W 013°41'0 0.0
2018-Jun-09 22:10N 09°23' W 013°41'0 0.0
2018-Jun-09 22:00N 09°23' W 013°41'0 0.0
2018-Jun-09 21:30N 09°23' W 013°41'0 0.0
2018-Jun-09 21:01N 09°23' W 013°41'0 0.1
2018-Jun-09 20:31N 09°23' W 013°41'0 0.1
2018-Jun-09 19:57N 09°23' W 013°41'0 0.0
2018-Jun-09 19:31N 09°23' W 013°41'0 0.0
2018-Jun-09 18:58N 09°23' W 013°41'0 0.0
2018-Jun-09 18:28N 09°23' W 013°41'0 0.0
2018-Jun-09 18:01N 09°23' W 013°41'0 0.0
2018-Jun-09 14:00N 09°23' W 013°41'0 0.0
2018-Jun-09 13:31N 09°23' W 013°41'0 0.0
2018-Jun-09 13:01N 09°23' W 013°41'0 0.0
2018-Jun-09 12:31N 09°23' W 013°41'0 0.0
2018-Jun-09 11:58N 09°23' W 013°41'0 0.0
2018-Jun-09 11:31N 09°23' W 013°41'  

Dump ship's entire track history